sensor_id;sensor_type;location;lat;lon;timestamp;pressure;altitude;pressure_sealevel;temperature;humidity
46392;BME280;32098;49.448;7.904;2022-11-20T00:01:26;97669.16;;;2.14;85.86
46392;BME280;32098;49.448;7.904;2022-11-20T00:03:55;97669.38;;;2.19;85.85
46392;BME280;32098;49.448;7.904;2022-11-20T00:06:22;97669.47;;;2.26;86.18
46392;BME280;32098;49.448;7.904;2022-11-20T00:08:50;97668.28;;;2.28;85.76
46392;BME280;32098;49.448;7.904;2022-11-20T00:11:19;97666.66;;;2.34;86.13
46392;BME280;32098;49.448;7.904;2022-11-20T00:13:48;97578.31;;;1.76;85.36
46392;BME280;32098;49.448;7.904;2022-11-20T00:16:17;97662.19;;;2.28;85.46
46392;BME280;32098;49.448;7.904;2022-11-20T00:18:44;97651.66;;;2.28;85.58
46392;BME280;32098;49.448;7.904;2022-11-20T00:21:17;97660.59;;;2.33;85.97
46392;BME280;32098;49.448;7.904;2022-11-20T00:23:44;97659.00;;;2.39;86.23
46392;BME280;32098;49.448;7.904;2022-11-20T00:26:13;97657.06;;;2.47;86.30
46392;BME280;32098;49.448;7.904;2022-11-20T00:28:41;97655.25;;;2.48;86.14
46392;BME280;32098;49.448;7.904;2022-11-20T00:31:13;97661.88;;;2.44;85.28
46392;BME280;32098;49.448;7.904;2022-11-20T00:33:41;97662.22;;;2.34;84.63
46392;BME280;32098;49.448;7.904;2022-11-20T00:36:10;97659.53;;;2.28;85.13
46392;BME280;32098;49.448;7.904;2022-11-20T00:38:37;97667.31;;;2.36;85.46
46392;BME280;32098;49.448;7.904;2022-11-20T00:41:06;97644.41;;;2.36;85.96
46392;BME280;32098;49.448;7.904;2022-11-20T00:43:33;97658.47;;;2.43;85.17
46392;BME280;32098;49.448;7.904;2022-11-20T00:46:01;97658.25;;;2.45;85.63
46392;BME280;32098;49.448;7.904;2022-11-20T00:48:28;97654.38;;;2.41;84.78
46392;BME280;32098;49.448;7.904;2022-11-20T00:50:55;97655.66;;;2.51;84.75
46392;BME280;32098;49.448;7.904;2022-11-20T00:53:22;97659.94;;;2.52;84.99
46392;BME280;32098;49.448;7.904;2022-11-20T00:55:56;97658.06;;;2.46;85.59
46392;BME280;32098;49.448;7.904;2022-11-20T00:58:28;97658.97;;;2.32;85.71
46392;BME280;32098;49.448;7.904;2022-11-20T01:01:00;97650.44;;;2.30;85.93
46392;BME280;32098;49.448;7.904;2022-11-20T01:03:27;97662.34;;;2.26;85.75
46392;BME280;32098;49.448;7.904;2022-11-20T01:05:53;97664.13;;;2.19;86.51
46392;BME280;32098;49.448;7.904;2022-11-20T01:08:20;97665.22;;;2.03;87.03
46392;BME280;32098;49.448;7.904;2022-11-20T01:10:46;97665.03;;;2.05;87.42
46392;BME280;32098;49.448;7.904;2022-11-20T01:13:13;97677.13;;;1.99;87.77
46392;BME280;32098;49.448;7.904;2022-11-20T01:16:09;97670.16;;;2.13;87.76
46392;BME280;32098;49.448;7.904;2022-11-20T01:18:37;97662.38;;;2.05;86.71
46392;BME280;32098;49.448;7.904;2022-11-20T01:21:06;97663.66;;;1.88;86.73
46392;BME280;32098;49.448;7.904;2022-11-20T01:23:34;97663.09;;;1.92;86.71
46392;BME280;32098;49.448;7.904;2022-11-20T01:26:04;97656.94;;;1.85;87.03
46392;BME280;32098;49.448;7.904;2022-11-20T01:28:31;97634.44;;;1.62;87.13
46392;BME280;32098;49.448;7.904;2022-11-20T01:30:57;97660.16;;;1.81;87.39
46392;BME280;32098;49.448;7.904;2022-11-20T01:33:24;97656.38;;;1.90;87.01
46392;BME280;32098;49.448;7.904;2022-11-20T01:35:51;97655.94;;;1.86;86.82
46392;BME280;32098;49.448;7.904;2022-11-20T01:38:18;97663.28;;;1.91;86.91
46392;BME280;32098;49.448;7.904;2022-11-20T01:40:53;97657.50;;;2.02;87.34
46392;BME280;32098;49.448;7.904;2022-11-20T01:43:20;97645.78;;;2.04;86.75
46392;BME280;32098;49.448;7.904;2022-11-20T01:46:17;97636.09;;;2.11;86.25
46392;BME280;32098;49.448;7.904;2022-11-20T01:49:14;97634.97;;;2.21;86.66
46392;BME280;32098;49.448;7.904;2022-11-20T01:51:55;97642.19;;;2.12;86.00
46392;BME280;32098;49.448;7.904;2022-11-20T01:54:27;97641.63;;;2.16;86.55
46392;BME280;32098;49.448;7.904;2022-11-20T01:56:57;97639.03;;;2.23;86.38
46392;BME280;32098;49.448;7.904;2022-11-20T01:59:26;97615.59;;;2.07;85.81
46392;BME280;32098;49.448;7.904;2022-11-20T02:01:54;97641.59;;;2.38;85.39
46392;BME280;32098;49.448;7.904;2022-11-20T02:04:22;97632.03;;;2.37;85.71
46392;BME280;32098;49.448;7.904;2022-11-20T02:07:00;97631.44;;;2.35;85.92
46392;BME280;32098;49.448;7.904;2022-11-20T02:09:28;97636.66;;;2.28;86.04
46392;BME280;32098;49.448;7.904;2022-11-20T02:11:55;97645.22;;;2.37;86.08
46392;BME280;32098;49.448;7.904;2022-11-20T02:14:22;97634.03;;;2.28;86.18
46392;BME280;32098;49.448;7.904;2022-11-20T02:16:50;97631.16;;;2.23;86.92
46392;BME280;32098;49.448;7.904;2022-11-20T02:19:28;97573.53;;;1.86;87.21
46392;BME280;32098;49.448;7.904;2022-11-20T02:22:10;97523.00;;;1.27;88.33
46392;BME280;32098;49.448;7.904;2022-11-20T02:24:41;97617.00;;;1.82;88.58
46392;BME280;32098;49.448;7.904;2022-11-20T02:27:11;97624.91;;;1.82;89.33
46392;BME280;32098;49.448;7.904;2022-11-20T02:30:19;97645.41;;;1.65;90.61
46392;BME280;32098;49.448;7.904;2022-11-20T02:32:38;97625.53;;;1.63;91.38
46392;BME280;32098;49.448;7.904;2022-11-20T02:37:45;97576.38;;;1.63;90.36
46392;BME280;32098;49.448;7.904;2022-11-20T02:40:14;97638.72;;;2.11;89.62
46392;BME280;32098;49.448;7.904;2022-11-20T02:42:41;97601.94;;;1.97;89.77
46392;BME280;32098;49.448;7.904;2022-11-20T02:45:09;97646.38;;;2.28;89.54
46392;BME280;32098;49.448;7.904;2022-11-20T02:47:36;97641.13;;;2.34;89.26
46392;BME280;32098;49.448;7.904;2022-11-20T02:50:04;97646.03;;;2.37;88.90
46392;BME280;32098;49.448;7.904;2022-11-20T02:52:32;97637.38;;;2.43;88.42
46392;BME280;32098;49.448;7.904;2022-11-20T02:54:59;97555.88;;;2.07;88.09
46392;BME280;32098;49.448;7.904;2022-11-20T02:57:26;97572.13;;;2.17;87.83
46392;BME280;32098;49.448;7.904;2022-11-20T02:59:54;97552.00;;;2.03;88.22
46392;BME280;32098;49.448;7.904;2022-11-20T03:02:21;97524.72;;;1.83;87.57
46392;BME280;32098;49.448;7.904;2022-11-20T03:04:48;97611.81;;;2.44;88.11
46392;BME280;32098;49.448;7.904;2022-11-20T03:07:15;97620.97;;;2.48;87.81
46392;BME280;32098;49.448;7.904;2022-11-20T03:09:42;97616.75;;;2.53;87.63
46392;BME280;32098;49.448;7.904;2022-11-20T03:12:09;97606.78;;;2.49;87.43
46392;BME280;32098;49.448;7.904;2022-11-20T03:14:36;97601.75;;;2.54;87.67
46392;BME280;32098;49.448;7.904;2022-11-20T03:17:09;97614.78;;;2.62;87.51
46392;BME280;32098;49.448;7.904;2022-11-20T03:19:36;97516.09;;;1.96;87.20
46392;BME280;32098;49.448;7.904;2022-11-20T03:22:04;97601.72;;;1.92;90.00
46392;BME280;32098;49.448;7.904;2022-11-20T03:24:31;97614.16;;;2.26;89.67
46392;BME280;32098;49.448;7.904;2022-11-20T03:26:58;97586.22;;;2.03;89.67
46392;BME280;32098;49.448;7.904;2022-11-20T03:29:25;97625.63;;;2.18;89.14
46392;BME280;32098;49.448;7.904;2022-11-20T03:31:52;97535.41;;;1.82;89.58
46392;BME280;32098;49.448;7.904;2022-11-20T03:34:18;97609.16;;;2.37;89.40
46392;BME280;32098;49.448;7.904;2022-11-20T03:36:46;97585.50;;;2.16;89.48
46392;BME280;32098;49.448;7.904;2022-11-20T03:39:13;97604.69;;;2.38;90.32
46392;BME280;32098;49.448;7.904;2022-11-20T03:41:41;97610.22;;;2.49;90.80
46392;BME280;32098;49.448;7.904;2022-11-20T03:44:10;97626.81;;;2.71;90.75
46392;BME280;32098;49.448;7.904;2022-11-20T03:46:39;97634.88;;;2.69;90.49
46392;BME280;32098;49.448;7.904;2022-11-20T03:49:05;97473.19;;;1.74;90.51
46392;BME280;32098;49.448;7.904;2022-11-20T03:51:34;97613.34;;;2.59;90.51
46392;BME280;32098;49.448;7.904;2022-11-20T03:54:05;97624.41;;;2.76;90.26
46392;BME280;32098;49.448;7.904;2022-11-20T03:56:35;97628.47;;;2.78;90.63
46392;BME280;32098;49.448;7.904;2022-11-20T03:59:05;97570.31;;;2.52;90.77
46392;BME280;32098;49.448;7.904;2022-11-20T04:01:34;97595.97;;;2.71;90.58
46392;BME280;32098;49.448;7.904;2022-11-20T04:04:01;97588.47;;;2.68;90.41
46392;BME280;32098;49.448;7.904;2022-11-20T04:06:36;97556.75;;;2.55;90.65
46392;BME280;32098;49.448;7.904;2022-11-20T04:09:05;97625.38;;;3.03;90.03
46392;BME280;32098;49.448;7.904;2022-11-20T04:11:34;97606.91;;;2.96;90.34
46392;BME280;32098;49.448;7.904;2022-11-20T04:14:04;97616.44;;;3.04;90.61
46392;BME280;32098;49.448;7.904;2022-11-20T04:16:33;97613.22;;;3.08;90.31
46392;BME280;32098;49.448;7.904;2022-11-20T04:19:01;97612.41;;;3.08;90.33
46392;BME280;32098;49.448;7.904;2022-11-20T04:21:29;97605.03;;;2.97;90.50
46392;BME280;32098;49.448;7.904;2022-11-20T04:23:55;97628.25;;;3.14;90.36
46392;BME280;32098;49.448;7.904;2022-11-20T04:26:24;97598.59;;;3.06;90.34
46392;BME280;32098;49.448;7.904;2022-11-20T04:28:52;97630.28;;;3.19;90.20
46392;BME280;32098;49.448;7.904;2022-11-20T04:31:21;97593.88;;;2.95;90.05
46392;BME280;32098;49.448;7.904;2022-11-20T04:33:49;97544.81;;;2.59;90.22
46392;BME280;32098;49.448;7.904;2022-11-20T04:36:19;97602.38;;;2.90;90.50
46392;BME280;32098;49.448;7.904;2022-11-20T04:38:46;97610.75;;;3.00;90.65
46392;BME280;32098;49.448;7.904;2022-11-20T04:41:29;97586.34;;;2.92;90.76
46392;BME280;32098;49.448;7.904;2022-11-20T04:43:58;97613.22;;;3.08;91.50
46392;BME280;32098;49.448;7.904;2022-11-20T04:46:34;97445.06;;;2.09;91.20
46392;BME280;32098;49.448;7.904;2022-11-20T04:49:03;97607.38;;;3.19;91.11
46392;BME280;32098;49.448;7.904;2022-11-20T04:51:31;97601.09;;;3.20;90.99
46392;BME280;32098;49.448;7.904;2022-11-20T04:53:58;97583.63;;;3.13;91.02
46392;BME280;32098;49.448;7.904;2022-11-20T04:56:24;97586.84;;;3.08;91.17
46392;BME280;32098;49.448;7.904;2022-11-20T04:58:51;97583.78;;;3.11;91.81
46392;BME280;32098;49.448;7.904;2022-11-20T05:01:23;97547.22;;;2.89;91.35
46392;BME280;32098;49.448;7.904;2022-11-20T05:03:51;97536.25;;;2.85;91.27
46392;BME280;32098;49.448;7.904;2022-11-20T05:06:21;97609.84;;;3.34;90.89
46392;BME280;32098;49.448;7.904;2022-11-20T05:08:48;97533.22;;;2.95;91.43
46392;BME280;32098;49.448;7.904;2022-11-20T05:11:19;97596.25;;;3.37;91.28
46392;BME280;32098;49.448;7.904;2022-11-20T05:13:46;97605.59;;;3.33;91.51
46392;BME280;32098;49.448;7.904;2022-11-20T05:16:18;97604.59;;;3.40;91.84
46392;BME280;32098;49.448;7.904;2022-11-20T05:18:46;97601.16;;;3.40;92.15
46392;BME280;32098;49.448;7.904;2022-11-20T05:21:13;97605.00;;;3.37;91.95
46392;BME280;32098;49.448;7.904;2022-11-20T05:23:43;97606.81;;;3.37;92.33
46392;BME280;32098;49.448;7.904;2022-11-20T05:26:16;97597.09;;;3.44;92.07
46392;BME280;32098;49.448;7.904;2022-11-20T05:28:45;97596.91;;;3.52;92.20
46392;BME280;32098;49.448;7.904;2022-11-20T05:31:14;97559.91;;;3.39;91.45
46392;BME280;32098;49.448;7.904;2022-11-20T05:33:43;97576.19;;;3.49;91.76
46392;BME280;32098;49.448;7.904;2022-11-20T05:36:13;97540.19;;;3.22;92.00
46392;BME280;32098;49.448;7.904;2022-11-20T05:38:41;97597.94;;;3.64;92.33
46392;BME280;32098;49.448;7.904;2022-11-20T05:41:13;97590.66;;;3.66;92.48
46392;BME280;32098;49.448;7.904;2022-11-20T05:43:41;97594.28;;;3.72;92.39
46392;BME280;32098;49.448;7.904;2022-11-20T05:46:09;97570.72;;;3.57;92.50
46392;BME280;32098;49.448;7.904;2022-11-20T05:48:38;97591.03;;;3.70;92.46
46392;BME280;32098;49.448;7.904;2022-11-20T05:51:09;97592.88;;;3.69;91.95
46392;BME280;32098;49.448;7.904;2022-11-20T05:53:36;97591.44;;;3.67;91.62
46392;BME280;32098;49.448;7.904;2022-11-20T05:56:14;97573.19;;;3.59;92.01
46392;BME280;32098;49.448;7.904;2022-11-20T05:58:41;97595.13;;;3.79;92.22
46392;BME280;32098;49.448;7.904;2022-11-20T06:01:20;97582.94;;;3.78;92.94
46392;BME280;32098;49.448;7.904;2022-11-20T06:03:47;97589.84;;;3.85;92.59
46392;BME280;32098;49.448;7.904;2022-11-20T06:06:17;97587.22;;;3.85;92.39
46392;BME280;32098;49.448;7.904;2022-11-20T06:08:44;97574.22;;;3.84;92.58
46392;BME280;32098;49.448;7.904;2022-11-20T06:11:14;97586.78;;;4.01;92.65
46392;BME280;32098;49.448;7.904;2022-11-20T06:13:41;97589.44;;;4.01;92.12
46392;BME280;32098;49.448;7.904;2022-11-20T06:16:10;97590.66;;;4.05;92.27
46392;BME280;32098;49.448;7.904;2022-11-20T06:18:38;97547.59;;;3.85;92.35
46392;BME280;32098;49.448;7.904;2022-11-20T06:21:07;97595.75;;;4.14;92.27
46392;BME280;32098;49.448;7.904;2022-11-20T06:23:35;97550.44;;;3.90;92.72
46392;BME280;32098;49.448;7.904;2022-11-20T06:26:10;97605.69;;;4.25;92.05
46392;BME280;32098;49.448;7.904;2022-11-20T06:28:37;97586.59;;;4.23;92.18
46392;BME280;32098;49.448;7.904;2022-11-20T06:31:05;97538.44;;;4.01;92.13
46392;BME280;32098;49.448;7.904;2022-11-20T06:33:33;97587.22;;;4.31;91.66
46392;BME280;32098;49.448;7.904;2022-11-20T06:36:00;97589.41;;;4.34;91.82
46392;BME280;32098;49.448;7.904;2022-11-20T06:38:37;97579.66;;;4.35;92.04
46392;BME280;32098;49.448;7.904;2022-11-20T06:41:05;97579.84;;;4.40;91.77
46392;BME280;32098;49.448;7.904;2022-11-20T06:43:32;97565.06;;;4.26;91.75
46392;BME280;32098;49.448;7.904;2022-11-20T06:45:59;97579.66;;;4.35;91.13
46392;BME280;32098;49.448;7.904;2022-11-20T06:48:27;97576.03;;;4.23;92.13
46392;BME280;32098;49.448;7.904;2022-11-20T06:50:55;97507.16;;;3.91;91.44
46392;BME280;32098;49.448;7.904;2022-11-20T06:53:22;97556.72;;;4.16;91.42
46392;BME280;32098;49.448;7.904;2022-11-20T06:55:50;97518.94;;;3.95;91.64
46392;BME280;32098;49.448;7.904;2022-11-20T06:58:17;97586.38;;;4.44;92.07
46392;BME280;32098;49.448;7.904;2022-11-20T07:00:44;97596.31;;;4.48;91.64
46392;BME280;32098;49.448;7.904;2022-11-20T07:03:13;97583.94;;;4.36;91.61
46392;BME280;32098;49.448;7.904;2022-11-20T07:05:40;97606.09;;;4.48;91.24
46392;BME280;32098;49.448;7.904;2022-11-20T07:08:07;97543.50;;;4.09;91.75
46392;BME280;32098;49.448;7.904;2022-11-20T07:10:34;97614.81;;;4.55;90.98
46392;BME280;32098;49.448;7.904;2022-11-20T07:13:01;97597.34;;;4.47;91.58
46392;BME280;32098;49.448;7.904;2022-11-20T07:15:28;97558.94;;;4.25;90.95
46392;BME280;32098;49.448;7.904;2022-11-20T07:17:55;97608.09;;;4.59;91.43
46392;BME280;32098;49.448;7.904;2022-11-20T07:20:24;97549.56;;;4.29;91.64
46392;BME280;32098;49.448;7.904;2022-11-20T07:22:54;97615.22;;;4.58;91.71
46392;BME280;32098;49.448;7.904;2022-11-20T07:25:37;97613.78;;;4.62;91.56
46392;BME280;32098;49.448;7.904;2022-11-20T07:28:03;97592.66;;;4.49;91.73
46392;BME280;32098;49.448;7.904;2022-11-20T07:30:31;97596.72;;;4.45;91.78
46392;BME280;32098;49.448;7.904;2022-11-20T07:32:57;97577.22;;;4.40;91.51
46392;BME280;32098;49.448;7.904;2022-11-20T07:35:24;97564.22;;;4.32;91.86
46392;BME280;32098;49.448;7.904;2022-11-20T07:37:51;97485.63;;;3.88;91.43
46392;BME280;32098;49.448;7.904;2022-11-20T07:40:18;97573.56;;;4.41;91.58
46392;BME280;32098;49.448;7.904;2022-11-20T07:42:53;97609.28;;;4.69;92.22
46392;BME280;32098;49.448;7.904;2022-11-20T07:45:22;97603.22;;;4.56;91.41
46392;BME280;32098;49.448;7.904;2022-11-20T07:47:50;97599.56;;;4.63;91.99
46392;BME280;32098;49.448;7.904;2022-11-20T07:50:18;97622.06;;;4.79;91.46
46392;BME280;32098;49.448;7.904;2022-11-20T07:52:45;97626.34;;;4.80;91.62
46392;BME280;32098;49.448;7.904;2022-11-20T07:55:12;97611.34;;;4.74;91.91
46392;BME280;32098;49.448;7.904;2022-11-20T07:57:40;97574.34;;;4.48;91.49
46392;BME280;32098;49.448;7.904;2022-11-20T08:00:10;97635.28;;;4.92;91.44
46392;BME280;32098;49.448;7.904;2022-11-20T08:02:40;97580.44;;;4.55;92.24
46392;BME280;32098;49.448;7.904;2022-11-20T08:05:09;97601.34;;;4.69;91.67
46392;BME280;32098;49.448;7.904;2022-11-20T08:07:40;97630.41;;;4.89;91.52
46392;BME280;32098;49.448;7.904;2022-11-20T08:10:13;97636.91;;;4.93;91.58
46392;BME280;32098;49.448;7.904;2022-11-20T08:12:48;97640.34;;;5.00;91.60
46392;BME280;32098;49.448;7.904;2022-11-20T08:15:35;97585.72;;;4.61;91.72
46392;BME280;32098;49.448;7.904;2022-11-20T08:18:08;97643.59;;;5.09;91.55
46392;BME280;32098;49.448;7.904;2022-11-20T08:21:05;97647.84;;;5.10;91.35
46392;BME280;32098;49.448;7.904;2022-11-20T08:23:33;97594.63;;;4.80;91.55
46392;BME280;32098;49.448;7.904;2022-11-20T08:26:00;97643.97;;;5.12;92.14
46392;BME280;32098;49.448;7.904;2022-11-20T08:28:27;97664.13;;;5.07;92.43
46392;BME280;32098;49.448;7.904;2022-11-20T08:31:00;97635.66;;;5.02;91.44
46392;BME280;32098;49.448;7.904;2022-11-20T08:33:28;97665.13;;;5.12;91.36
46392;BME280;32098;49.448;7.904;2022-11-20T08:36:03;97663.91;;;5.21;91.67
46392;BME280;32098;49.448;7.904;2022-11-20T08:38:30;97609.66;;;4.86;90.89
46392;BME280;32098;49.448;7.904;2022-11-20T08:41:03;97623.88;;;4.98;91.16
46392;BME280;32098;49.448;7.904;2022-11-20T08:44:00;97655.78;;;5.16;91.19
46392;BME280;32098;49.448;7.904;2022-11-20T08:46:34;97674.06;;;5.31;91.70
46392;BME280;32098;49.448;7.904;2022-11-20T08:49:04;97644.03;;;5.88;98.80
46392;BME280;32098;49.448;7.904;2022-11-20T08:51:32;97670.22;;;6.09;95.06
46392;BME280;32098;49.448;7.904;2022-11-20T08:54:06;97669.66;;;6.25;93.81
46392;BME280;32098;49.448;7.904;2022-11-20T08:56:35;97677.38;;;6.33;90.40
46392;BME280;32098;49.448;7.904;2022-11-20T08:59:01;97614.72;;;6.14;89.13
46392;BME280;32098;49.448;7.904;2022-11-20T09:01:48;97684.28;;;6.84;88.11
46392;BME280;32098;49.448;7.904;2022-11-20T09:04:15;97609.66;;;6.74;85.82
46392;BME280;32098;49.448;7.904;2022-11-20T09:06:42;97593.72;;;6.55;82.05
46392;BME280;32098;49.448;7.904;2022-11-20T09:09:10;97684.28;;;6.84;81.09
46392;BME280;32098;49.448;7.904;2022-11-20T09:11:39;97675.09;;;6.61;81.66
46392;BME280;32098;49.448;7.904;2022-11-20T09:14:06;97655.00;;;6.23;82.14
46392;BME280;32098;49.448;7.904;2022-11-20T09:16:35;97638.66;;;6.01;83.09
46392;BME280;32098;49.448;7.904;2022-11-20T09:19:02;97673.81;;;6.15;83.35
46392;BME280;32098;49.448;7.904;2022-11-20T09:21:49;97657.28;;;5.88;84.59
46392;BME280;32098;49.448;7.904;2022-11-20T09:24:16;97600.44;;;5.53;84.85
46392;BME280;32098;49.448;7.904;2022-11-20T09:26:42;97665.63;;;5.91;84.83
46392;BME280;32098;49.448;7.904;2022-11-20T09:29:09;97691.25;;;6.04;85.50
46392;BME280;32098;49.448;7.904;2022-11-20T09:31:36;97657.16;;;5.76;85.62
46392;BME280;32098;49.448;7.904;2022-11-20T09:34:02;97698.03;;;5.87;86.36
46392;BME280;32098;49.448;7.904;2022-11-20T09:36:29;97608.28;;;5.34;85.67
46392;BME280;32098;49.448;7.904;2022-11-20T09:38:56;97675.47;;;5.78;85.97
46392;BME280;32098;49.448;7.904;2022-11-20T09:50:23;97691.50;;;5.89;85.90
46392;BME280;32098;49.448;7.904;2022-11-20T09:53:08;97696.78;;;5.96;86.30
46392;BME280;32098;49.448;7.904;2022-11-20T09:55:38;97683.38;;;5.84;86.03
46392;BME280;32098;49.448;7.904;2022-11-20T10:00:57;97674.66;;;5.84;85.77
46392;BME280;32098;49.448;7.904;2022-11-20T10:03:58;97684.97;;;5.92;86.50
46392;BME280;32098;49.448;7.904;2022-11-20T10:06:39;97652.69;;;5.70;85.41
46392;BME280;32098;49.448;7.904;2022-11-20T10:09:16;97687.44;;;5.93;86.40
46392;BME280;32098;49.448;7.904;2022-11-20T10:18:02;97690.81;;;5.69;85.74
46392;BME280;32098;49.448;7.904;2022-11-20T10:20:39;97690.38;;;5.79;86.77
46392;BME280;32098;49.448;7.904;2022-11-20T10:26:26;97686.97;;;6.03;84.70
46392;BME280;32098;49.448;7.904;2022-11-20T10:29:14;97671.47;;;6.00;83.53
46392;BME280;32098;49.448;7.904;2022-11-20T10:31:50;97677.19;;;5.97;82.90
46392;BME280;32098;49.448;7.904;2022-11-20T10:34:25;97664.66;;;5.79;83.25
46392;BME280;32098;49.448;7.904;2022-11-20T10:36:58;97670.75;;;5.86;82.31
46392;BME280;32098;49.448;7.904;2022-11-20T10:39:35;97671.34;;;5.88;81.38
46392;BME280;32098;49.448;7.904;2022-11-20T10:42:08;97668.22;;;5.98;80.81
46392;BME280;32098;49.448;7.904;2022-11-20T10:44:39;97656.78;;;6.04;81.02
46392;BME280;32098;49.448;7.904;2022-11-20T10:47:32;97652.09;;;6.31;81.29
46392;BME280;32098;49.448;7.904;2022-11-20T10:50:03;97614.16;;;6.30;81.18
46392;BME280;32098;49.448;7.904;2022-11-20T10:58:14;97641.38;;;6.87;79.91
46392;BME280;32098;49.448;7.904;2022-11-20T11:00:45;97604.94;;;6.76;79.97
46392;BME280;32098;49.448;7.904;2022-11-20T11:03:27;97599.88;;;6.74;79.48
46392;BME280;32098;49.448;7.904;2022-11-20T11:06:02;97507.28;;;6.12;78.02
46392;BME280;32098;49.448;7.904;2022-11-20T11:08:38;97559.47;;;6.54;77.26
46392;BME280;32098;49.448;7.904;2022-11-20T11:11:21;97641.13;;;7.13;77.59
46392;BME280;32098;49.448;7.904;2022-11-20T11:13:50;97641.25;;;7.18;76.85
46392;BME280;32098;49.448;7.904;2022-11-20T11:16:25;97648.78;;;7.21;74.85
46392;BME280;32098;49.448;7.904;2022-11-20T11:19:03;97609.91;;;7.26;75.57
46392;BME280;32098;49.448;7.904;2022-11-20T11:21:30;97606.44;;;7.44;75.40
46392;BME280;32098;49.448;7.904;2022-11-20T11:24:02;97486.22;;;6.71;74.94
46392;BME280;32098;49.448;7.904;2022-11-20T11:26:57;97605.78;;;7.60;73.93
46392;BME280;32098;49.448;7.904;2022-11-20T11:29:24;97631.03;;;7.69;73.72
46392;BME280;32098;49.448;7.904;2022-11-20T11:32:17;97627.41;;;7.93;73.73
46392;BME280;32098;49.448;7.904;2022-11-20T11:35:18;97619.19;;;7.95;72.26
46392;BME280;32098;49.448;7.904;2022-11-20T11:38:04;97526.22;;;7.36;71.89
46392;BME280;32098;49.448;7.904;2022-11-20T11:40:33;97615.34;;;7.79;69.70
46392;BME280;32098;49.448;7.904;2022-11-20T11:43:06;97603.66;;;7.80;69.86
46392;BME280;32098;49.448;7.904;2022-11-20T11:45:54;97607.56;;;7.66;70.10
46392;BME280;32098;49.448;7.904;2022-11-20T11:48:24;97581.78;;;7.37;69.63
46392;BME280;32098;49.448;7.904;2022-11-20T11:50:53;97591.81;;;7.35;69.79
46392;BME280;32098;49.448;7.904;2022-11-20T11:53:21;97560.56;;;7.01;69.61
46392;BME280;32098;49.448;7.904;2022-11-20T11:56:09;97612.00;;;7.24;70.83
46392;BME280;32098;49.448;7.904;2022-11-20T11:58:48;97594.28;;;7.18;70.55
46392;BME280;32098;49.448;7.904;2022-11-20T12:04:43;97587.84;;;6.90;69.29
46392;BME280;32098;49.448;7.904;2022-11-20T12:07:44;97602.91;;;6.96;70.53
46392;BME280;32098;49.448;7.904;2022-11-20T12:10:23;97599.41;;;6.95;70.58
46392;BME280;32098;49.448;7.904;2022-11-20T12:13:02;97550.69;;;6.53;70.64
46392;BME280;32098;49.448;7.904;2022-11-20T12:15:33;97591.91;;;6.92;71.25
46392;BME280;32098;49.448;7.904;2022-11-20T12:18:00;97573.94;;;6.76;70.42
46392;BME280;32098;49.448;7.904;2022-11-20T12:20:41;97607.91;;;6.86;71.47
46392;BME280;32098;49.448;7.904;2022-11-20T12:23:39;97600.81;;;6.98;70.90
46392;BME280;32098;49.448;7.904;2022-11-20T12:32:35;97597.16;;;6.99;71.83
46392;BME280;32098;49.448;7.904;2022-11-20T12:35:37;97570.31;;;6.89;72.34
46392;BME280;32098;49.448;7.904;2022-11-20T12:44:25;97561.91;;;6.92;72.63
46392;BME280;32098;49.448;7.904;2022-11-20T12:48:13;97553.81;;;6.87;72.28
46392;BME280;32098;49.448;7.904;2022-11-20T12:59:03;97552.03;;;6.81;71.42
46392;BME280;32098;49.448;7.904;2022-11-20T13:01:41;97554.38;;;6.89;71.92
46392;BME280;32098;49.448;7.904;2022-11-20T13:04:27;97564.63;;;7.03;72.32
46392;BME280;32098;49.448;7.904;2022-11-20T13:07:01;97559.31;;;6.85;70.30
46392;BME280;32098;49.448;7.904;2022-11-20T13:09:29;97493.53;;;6.39;70.10
46392;BME280;32098;49.448;7.904;2022-11-20T13:12:14;97558.06;;;6.88;69.49
46392;BME280;32098;49.448;7.904;2022-11-20T13:14:52;97515.09;;;6.61;69.62
46392;BME280;32098;49.448;7.904;2022-11-20T13:19:54;97534.94;;;6.77;68.35
46392;BME280;32098;49.448;7.904;2022-11-20T13:24:52;97539.72;;;6.86;66.89
46392;BME280;32098;49.448;7.904;2022-11-20T13:27:23;97546.56;;;6.94;66.68
46392;BME280;32098;49.448;7.904;2022-11-20T13:30:24;97537.84;;;7.05;65.28
46392;BME280;32098;49.448;7.904;2022-11-20T13:35:34;97524.28;;;7.13;65.52
46392;BME280;32098;49.448;7.904;2022-11-20T13:38:07;97446.19;;;6.54;64.16
46392;BME280;32098;49.448;7.904;2022-11-20T13:40:55;97522.69;;;7.12;64.37
46392;BME280;32098;49.448;7.904;2022-11-20T13:45:59;97520.75;;;7.01;65.24
46392;BME280;32098;49.448;7.904;2022-11-20T13:48:48;97519.94;;;7.00;63.81
46392;BME280;32098;49.448;7.904;2022-11-20T13:51:37;97510.13;;;7.01;63.54
46392;BME280;32098;49.448;7.904;2022-11-20T13:57:05;97496.28;;;6.99;63.63
46392;BME280;32098;49.448;7.904;2022-11-20T13:59:40;97501.78;;;6.97;62.70
46392;BME280;32098;49.448;7.904;2022-11-20T14:02:16;97496.59;;;6.91;63.23
46392;BME280;32098;49.448;7.904;2022-11-20T14:04:48;97501.16;;;7.02;63.46
46392;BME280;32098;49.448;7.904;2022-11-20T14:07:18;97453.69;;;6.76;62.90
46392;BME280;32098;49.448;7.904;2022-11-20T14:09:54;97495.75;;;6.90;62.91
46392;BME280;32098;49.448;7.904;2022-11-20T14:12:30;97499.22;;;6.91;63.00
46392;BME280;32098;49.448;7.904;2022-11-20T14:14:57;97475.09;;;6.62;64.29
46392;BME280;32098;49.448;7.904;2022-11-20T14:17:33;97473.84;;;6.65;63.49
46392;BME280;32098;49.448;7.904;2022-11-20T14:20:22;97483.13;;;6.74;63.72
46392;BME280;32098;49.448;7.904;2022-11-20T14:22:58;97457.63;;;6.55;64.74
46392;BME280;32098;49.448;7.904;2022-11-20T14:26:24;97172.41;;;4.86;64.41
46392;BME280;32098;49.448;7.904;2022-11-20T14:37:25;97356.09;;;5.82;65.53
46392;BME280;32098;49.448;7.904;2022-11-20T14:39:56;97445.66;;;6.34;66.09
46392;BME280;32098;49.448;7.904;2022-11-20T14:42:27;97477.59;;;6.57;66.57
46392;BME280;32098;49.448;7.904;2022-11-20T14:44:59;97433.31;;;6.40;66.31
46392;BME280;32098;49.448;7.904;2022-11-20T14:47:30;97287.91;;;5.41;65.78
46392;BME280;32098;49.448;7.904;2022-11-20T14:49:58;97421.34;;;6.19;66.67
46392;BME280;32098;49.448;7.904;2022-11-20T14:52:35;97414.84;;;6.15;67.04